PWSweather.com
Personal Weather Stations
Station Observations
KMILAPEE3
Lapeer Michigan, Lapeer, MI 48446

Lapeer MichiganLapeer, MI 48446

Lat: 43.057, Lon: -83.362

Elevation: 897

Station Type: Oregon Scientific WMR-968

Latest ConditionsUpdated 5:59:39 AM EDT Thursday, Oct 23, 2014
Currently Today's Max Today's Min Today's Average
Temperature 29.3°F-1.5°C 34.5°F1.4°C 29.3°F-1.5°C 31.0°F-0.6°C
Dew Point 20.7°F-6.3°C 23.4°F-4.8°C 19.9°F-6.7°C 21.0°F-6.1°C
Winds Calm Calm 4.5 mph WNW7.2 kmh WNW - 0.6 mph 1.0 kmh
Wind Gusts 3.7 mph6.0 kmh 7.4 mph11.9 kmh - -
Humidity 70% 70% 62% 66%
Pressure 30.53 in1033.9 mb 30.53 in1033.9 mb 30.29 in1025.7 mb -
Hour Temp Dew Point Humidity Winds Wind Gusts Pressure Precip Precip Rate Daily Precip Total
05:59 AM 29.3°F-1.5°C 20.7°F-6.3°C 70% Calm Calm 3.7 mph6.0 kmh 30.53 in1033.9 mb 0.00 in0.0 mm 0.00 in/hr0.0 mm/hr 0.00 in0.0 mm
05:54 AM 29.3°F-1.5°C 20.7°F-6.3°C 70% Calm Calm 3.7 mph6.0 kmh 30.50 in1032.8 mb 0.00 in0.0 mm 0.00 in/hr0.0 mm/hr 0.00 in0.0 mm
05:49 AM 29.3°F-1.5°C 20.6°F-6.3°C 70% Calm Calm -- 30.50 in1032.8 mb 0.00 in0.0 mm 0.00 in/hr0.0 mm/hr 0.00 in0.0 mm
05:44 AM 29.3°F-1.5°C 20.2°F-6.6°C 68% Calm Calm -- 30.47 in1031.8 mb 0.00 in0.0 mm 0.00 in/hr0.0 mm/hr 0.00 in0.0 mm
05:39 AM 29.3°F-1.5°C 20.2°F-6.6°C 68% Calm Calm -- 30.47 in1031.8 mb 0.00 in0.0 mm 0.00 in/hr0.0 mm/hr 0.00 in0.0 mm
05:34 AM 29.3°F-1.5°C 20.2°F-6.6°C 68% Calm Calm -- 30.47 in1031.8 mb 0.00 in0.0 mm 0.00 in/hr0.0 mm/hr 0.00 in0.0 mm
05:29 AM 29.5°F-1.4°C 20.4°F-6.4°C 68% Calm Calm -- 30.47 in1031.8 mb 0.00 in0.0 mm 0.00 in/hr0.0 mm/hr 0.00 in0.0 mm
05:24 AM 29.7°F-1.3°C 20.6°F-6.3°C 68% Calm Calm -- 30.47 in1031.8 mb 0.00 in0.0 mm 0.00 in/hr0.0 mm/hr 0.00 in0.0 mm
05:19 AM 30.0°F-1.1°C 20.9°F-6.2°C 68% Calm Calm -- 30.47 in1031.8 mb 0.00 in0.0 mm 0.00 in/hr0.0 mm/hr 0.00 in0.0 mm
05:14 AM 30.2°F-1.0°C 21.1°F-6.1°C 68% Calm Calm -- 30.47 in1031.8 mb 0.00 in0.0 mm 0.00 in/hr0.0 mm/hr 0.00 in0.0 mm
05:09 AM 30.4°F-0.9°C 21.2°F-6.0°C 68% Calm Calm -- 30.47 in1031.8 mb 0.00 in0.0 mm 0.00 in/hr0.0 mm/hr 0.00 in0.0 mm
05:03 AM 30.6°F-0.8°C 21.4°F-5.9°C 68% Calm Calm -- 30.47 in1031.8 mb 0.00 in0.0 mm 0.00 in/hr0.0 mm/hr 0.00 in0.0 mm
04:58 AM 30.7°F-0.7°C 21.5°F-5.8°C 68% Calm Calm -- 30.47 in1031.8 mb 0.00 in0.0 mm 0.00 in/hr0.0 mm/hr 0.00 in0.0 mm
04:53 AM 31.1°F-0.5°C 21.9°F-5.6°C 68% Calm Calm 5.5 mph8.9 kmh 30.47 in1031.8 mb 0.00 in0.0 mm 0.00 in/hr0.0 mm/hr 0.00 in0.0 mm
04:48 AM 31.1°F-0.5°C 21.9°F-5.6°C 68% 3.4 mph W5.5 kmh W 5.5 mph8.9 kmh 30.47 in1031.8 mb 0.00 in0.0 mm 0.00 in/hr0.0 mm/hr 0.00 in0.0 mm
04:42 AM 30.9°F-0.6°C 21.7°F-5.7°C 68% 3.9 mph WNW6.3 kmh WNW 6.2 mph10.0 kmh 30.44 in1030.8 mb 0.00 in0.0 mm 0.00 in/hr0.0 mm/hr 0.00 in0.0 mm
04:37 AM 30.2°F-1.0°C 21.1°F-6.1°C 68% 4.1 mph WNW6.6 kmh WNW 6.2 mph10.0 kmh 30.44 in1030.8 mb 0.00 in0.0 mm 0.00 in/hr0.0 mm/hr 0.00 in0.0 mm
04:32 AM 29.8°F-1.2°C 20.3°F-6.5°C 67% 2.9 mph WNW4.7 kmh WNW 5.5 mph8.9 kmh 30.44 in1030.8 mb 0.00 in0.0 mm 0.00 in/hr0.0 mm/hr 0.00 in0.0 mm
04:27 AM 29.8°F-1.2°C 20.3°F-6.5°C 67% 3.8 mph WNW6.1 kmh WNW 5.5 mph8.9 kmh 30.41 in1029.8 mb 0.00 in0.0 mm 0.00 in/hr0.0 mm/hr 0.00 in0.0 mm
04:22 AM 29.8°F-1.2°C 20.3°F-6.5°C 67% 3.6 mph WNW5.8 kmh WNW 5.5 mph8.9 kmh 30.41 in1029.8 mb 0.00 in0.0 mm 0.00 in/hr0.0 mm/hr 0.00 in0.0 mm
04:17 AM 29.7°F-1.3°C 20.2°F-6.6°C 67% 3.4 mph WNW5.5 kmh WNW 4.9 mph7.9 kmh 30.41 in1029.8 mb 0.00 in0.0 mm 0.00 in/hr0.0 mm/hr 0.00 in0.0 mm
04:11 AM 29.7°F-1.3°C 20.2°F-6.6°C 67% Calm Calm 3.7 mph6.0 kmh 30.41 in1029.8 mb 0.00 in0.0 mm 0.00 in/hr0.0 mm/hr 0.00 in0.0 mm
04:06 AM 29.8°F-1.2°C 20.3°F-6.5°C 67% Calm Calm 4.9 mph7.9 kmh 30.41 in1029.8 mb 0.00 in0.0 mm 0.00 in/hr0.0 mm/hr 0.00 in0.0 mm
04:01 AM 30.0°F-1.1°C 20.5°F-6.4°C 67% 2.8 mph WNW4.5 kmh WNW 4.9 mph7.9 kmh 30.41 in1029.8 mb 0.00 in0.0 mm 0.00 in/hr0.0 mm/hr 0.00 in0.0 mm
03:56 AM 30.0°F-1.1°C 20.5°F-6.4°C 67% 3.4 mph WNW5.5 kmh WNW 5.5 mph8.9 kmh 30.41 in1029.8 mb 0.00 in0.0 mm 0.00 in/hr0.0 mm/hr 0.00 in0.0 mm
03:50 AM 30.0°F-1.1°C 20.5°F-6.4°C 67% 3.9 mph WNW6.3 kmh WNW 7.4 mph11.9 kmh 30.41 in1029.8 mb 0.00 in0.0 mm 0.00 in/hr0.0 mm/hr 0.00 in0.0 mm
03:45 AM 29.8°F-1.2°C 19.9°F-6.7°C 66% 4.5 mph WNW7.2 kmh WNW 7.4 mph11.9 kmh 30.41 in1029.8 mb 0.00 in0.0 mm 0.00 in/hr0.0 mm/hr 0.00 in0.0 mm
03:40 AM 29.8°F-1.2°C 19.9°F-6.7°C 66% 4.1 mph N6.6 kmh N 5.5 mph8.9 kmh 30.41 in1029.8 mb 0.00 in0.0 mm 0.00 in/hr0.0 mm/hr 0.00 in0.0 mm
03:35 AM 30.0°F-1.1°C 20.1°F-6.6°C 66% Calm Calm -- 30.41 in1029.8 mb 0.00 in0.0 mm 0.00 in/hr0.0 mm/hr 0.00 in0.0 mm
03:30 AM 30.0°F-1.1°C 20.2°F-6.6°C 66% Calm Calm -- 30.41 in1029.8 mb 0.00 in0.0 mm 0.00 in/hr0.0 mm/hr 0.00 in0.0 mm
03:25 AM 30.0°F-1.1°C 20.2°F-6.6°C 66% Calm Calm -- 30.38 in1028.8 mb 0.00 in0.0 mm 0.00 in/hr0.0 mm/hr 0.00 in0.0 mm
03:20 AM 29.8°F-1.2°C 20.0°F-6.7°C 66% Calm Calm -- 30.38 in1028.8 mb 0.00 in0.0 mm 0.00 in/hr0.0 mm/hr 0.00 in0.0 mm
03:15 AM 30.0°F-1.1°C 20.2°F-6.6°C 66% Calm Calm -- 30.38 in1028.8 mb 0.00 in0.0 mm 0.00 in/hr0.0 mm/hr 0.00 in0.0 mm
03:10 AM 30.0°F-1.1°C 20.2°F-6.6°C 66% Calm Calm -- 30.38 in1028.8 mb 0.00 in0.0 mm 0.00 in/hr0.0 mm/hr 0.00 in0.0 mm
03:05 AM 30.2°F-1.0°C 20.4°F-6.4°C 66% Calm Calm -- 30.38 in1028.8 mb 0.00 in0.0 mm 0.00 in/hr0.0 mm/hr 0.00 in0.0 mm
03:00 AM 30.2°F-1.0°C 20.4°F-6.4°C 66% Calm Calm -- 30.38 in1028.8 mb 0.00 in0.0 mm 0.00 in/hr0.0 mm/hr 0.00 in0.0 mm
02:55 AM 30.2°F-1.0°C 20.4°F-6.4°C 66% Calm Calm -- 30.38 in1028.8 mb 0.00 in0.0 mm 0.00 in/hr0.0 mm/hr 0.00 in0.0 mm
02:50 AM 30.2°F-1.0°C 20.0°F-6.7°C 65% Calm Calm -- 30.38 in1028.8 mb 0.00 in0.0 mm 0.00 in/hr0.0 mm/hr 0.00 in0.0 mm
02:45 AM 30.2°F-1.0°C 20.0°F-6.7°C 65% Calm Calm -- 30.38 in1028.8 mb 0.00 in0.0 mm 0.00 in/hr0.0 mm/hr 0.00 in0.0 mm
02:40 AM 30.2°F-1.0°C 20.0°F-6.7°C 65% Calm Calm -- 30.38 in1028.8 mb 0.00 in0.0 mm 0.00 in/hr0.0 mm/hr 0.00 in0.0 mm
02:35 AM 30.4°F-0.9°C 20.2°F-6.6°C 65% Calm Calm -- 30.38 in1028.8 mb 0.00 in0.0 mm 0.00 in/hr0.0 mm/hr 0.00 in0.0 mm
02:30 AM 30.6°F-0.8°C 20.4°F-6.4°C 65% Calm Calm -- 30.38 in1028.8 mb 0.00 in0.0 mm 0.00 in/hr0.0 mm/hr 0.00 in0.0 mm
02:25 AM 30.7°F-0.7°C 20.5°F-6.4°C 65% Calm Calm -- 30.35 in1027.8 mb 0.00 in0.0 mm 0.00 in/hr0.0 mm/hr 0.00 in0.0 mm
02:20 AM 30.7°F-0.7°C 20.1°F-6.6°C 64% Calm Calm -- 30.35 in1027.8 mb 0.00 in0.0 mm 0.00 in/hr0.0 mm/hr 0.00 in0.0 mm
02:15 AM 30.9°F-0.6°C 20.3°F-6.5°C 64% Calm Calm -- 30.35 in1027.8 mb 0.00 in0.0 mm 0.00 in/hr0.0 mm/hr 0.00 in0.0 mm
02:10 AM 31.1°F-0.5°C 20.5°F-6.4°C 64% Calm Calm -- 30.35 in1027.8 mb 0.00 in0.0 mm 0.00 in/hr0.0 mm/hr 0.00 in0.0 mm
02:05 AM 31.3°F-0.4°C 21.1°F-6.1°C 65% Calm Calm -- 30.35 in1027.8 mb 0.00 in0.0 mm 0.00 in/hr0.0 mm/hr 0.00 in0.0 mm
01:59 AM 31.5°F-0.3°C 21.3°F-5.9°C 65% Calm Calm -- 30.35 in1027.8 mb 0.00 in0.0 mm 0.00 in/hr0.0 mm/hr 0.00 in0.0 mm
01:54 AM 31.3°F-0.4°C 20.7°F-6.3°C 64% Calm Calm -- 30.35 in1027.8 mb 0.00 in0.0 mm 0.00 in/hr0.0 mm/hr 0.00 in0.0 mm
01:49 AM 31.1°F-0.5°C 20.5°F-6.4°C 64% Calm Calm -- 30.35 in1027.8 mb 0.00 in0.0 mm 0.00 in/hr0.0 mm/hr 0.00 in0.0 mm
01:44 AM 31.1°F-0.5°C 20.5°F-6.4°C 64% Calm Calm -- 30.35 in1027.8 mb 0.00 in0.0 mm 0.00 in/hr0.0 mm/hr 0.00 in0.0 mm
01:39 AM 31.3°F-0.4°C 20.7°F-6.3°C 64% Calm Calm -- 30.35 in1027.8 mb 0.00 in0.0 mm 0.00 in/hr0.0 mm/hr 0.00 in0.0 mm
01:34 AM 31.6°F-0.2°C 21.0°F-6.1°C 64% Calm Calm -- 30.35 in1027.8 mb 0.00 in0.0 mm 0.00 in/hr0.0 mm/hr 0.00 in0.0 mm
01:29 AM 31.6°F-0.2°C 21.0°F-6.1°C 64% Calm Calm -- 30.32 in1026.8 mb 0.00 in0.0 mm 0.00 in/hr0.0 mm/hr 0.00 in0.0 mm
01:24 AM 32.0°F0.0°C 21.4°F-5.9°C 64% Calm Calm -- 30.32 in1026.8 mb 0.00 in0.0 mm 0.00 in/hr0.0 mm/hr 0.00 in0.0 mm
01:18 AM 32.2°F0.1°C 21.6°F-5.8°C 64% Calm Calm -- 30.32 in1026.8 mb 0.00 in0.0 mm 0.00 in/hr0.0 mm/hr 0.00 in0.0 mm
01:13 AM 32.4°F0.2°C 21.3°F-5.9°C 63% Calm Calm -- 30.32 in1026.8 mb 0.00 in0.0 mm 0.00 in/hr0.0 mm/hr 0.00 in0.0 mm
01:08 AM 32.5°F0.3°C 21.4°F-5.9°C 63% Calm Calm -- 30.32 in1026.8 mb 0.00 in0.0 mm 0.00 in/hr0.0 mm/hr 0.00 in0.0 mm
01:03 AM 32.7°F0.4°C 21.6°F-5.8°C 63% Calm Calm -- 30.32 in1026.8 mb 0.00 in0.0 mm 0.00 in/hr0.0 mm/hr 0.00 in0.0 mm
12:58 AM 32.9°F0.5°C 21.8°F-5.7°C 63% Calm Calm -- 30.32 in1026.8 mb 0.00 in0.0 mm 0.00 in/hr0.0 mm/hr 0.00 in0.0 mm
12:53 AM 33.1°F0.6°C 22.0°F-5.6°C 63% Calm Calm -- 30.32 in1026.8 mb 0.00 in0.0 mm 0.00 in/hr0.0 mm/hr 0.00 in0.0 mm
12:48 AM 33.3°F0.7°C 22.2°F-5.4°C 63% Calm Calm -- 30.32 in1026.8 mb 0.00 in0.0 mm 0.00 in/hr0.0 mm/hr 0.00 in0.0 mm
12:43 AM 33.4°F0.8°C 22.3°F-5.4°C 63% Calm Calm -- 30.32 in1026.8 mb 0.00 in0.0 mm 0.00 in/hr0.0 mm/hr 0.00 in0.0 mm
12:38 AM 33.4°F0.8°C 22.3°F-5.4°C 63% Calm Calm -- 30.32 in1026.8 mb 0.00 in0.0 mm 0.00 in/hr0.0 mm/hr 0.00 in0.0 mm
12:33 AM 33.6°F0.9°C 22.5°F-5.3°C 63% Calm Calm -- 30.32 in1026.8 mb 0.00 in0.0 mm 0.00 in/hr0.0 mm/hr 0.00 in0.0 mm
12:27 AM 33.8°F1.0°C 22.7°F-5.2°C 63% Calm Calm -- 30.32 in1026.8 mb 0.00 in0.0 mm 0.00 in/hr0.0 mm/hr 0.00 in0.0 mm
12:22 AM 34.0°F1.1°C 22.9°F-5.1°C 63% Calm Calm -- 30.32 in1026.8 mb 0.00 in0.0 mm 0.00 in/hr0.0 mm/hr 0.00 in0.0 mm
12:17 AM 34.2°F1.2°C 23.1°F-4.9°C 63% Calm Calm -- 30.32 in1026.8 mb 0.00 in0.0 mm 0.00 in/hr0.0 mm/hr 0.00 in0.0 mm
12:12 AM 34.3°F1.3°C 23.2°F-4.9°C 63% Calm Calm 3.0 mph4.8 kmh 30.29 in1025.7 mb 0.00 in0.0 mm 0.00 in/hr0.0 mm/hr 0.00 in0.0 mm
12:06 AM 34.5°F1.4°C 23.4°F-4.8°C 63% Calm Calm 3.0 mph4.8 kmh 30.29 in1025.7 mb 0.00 in0.0 mm 0.00 in/hr0.0 mm/hr 0.00 in0.0 mm
12:01 AM 34.5°F1.4°C 22.9°F-5.1°C 62% Calm Calm -- 30.29 in1025.7 mb 0.00 in0.0 mm 0.00 in/hr0.0 mm/hr 0.00 in0.0 mm